aviador You're here:

LEVC Decoded Metar

VALENCIA in SPAIN
Report Time2016-06-01 03:00:00
UTC Time2016-06-01 03:28:53
Flight Rules vfr VFR
Wind290° at 08 kt
W.Decomp.*RWY 30: 7.9 kt HW 1.3 kt LCW
W.Rank290° ranks 10
Current wind is above 290° avg. (7.1)
Visibility9999 m
Phenomena:N/A
Clouds:N/A
Expected CloudBase > 3,200 ft AGL from Temp-Dew spread
CeilingNone
Temp17°C (ISA +2)
Dew Point09°C (59% RH)
AAT13.9°C
QNH1019 hPa
Density Alt440 ft
Elevation203 ft
Report Wrong Elevation
Raw Report
LEVC 010300Z 29008KT CAVOK 17/09 Q1019 NOSIG=

Extra information for LEVC:More info

Metar Taf Metar & Taf Last 4 Metars F.Rules Stats Wind Profile Meteogram Temp Stats Airport Information Weather charts Add Link Nearby VenuesMetar ALERT Operation Metar Decoded Social comments

Webcam Valencia